createdAt,value
2018-04-23T00:00:11.354Z,89.14
2018-04-23T00:01:11.345Z,89.23
2018-04-23T00:02:11.254Z,89.62
2018-04-23T00:03:11.231Z,89.23
2018-04-23T00:04:11.179Z,89.91
2018-04-23T00:05:11.147Z,89.72
2018-04-23T00:06:11.100Z,89.72
2018-04-23T00:07:11.038Z,89.81
2018-04-23T00:08:11.001Z,89.72
2018-04-23T00:09:10.944Z,89.62
2018-04-23T00:10:10.912Z,89.62
2018-04-23T00:11:10.883Z,89.14
2018-04-23T00:12:10.819Z,89.14
2018-04-23T00:13:10.785Z,89.14
2018-04-23T00:14:10.722Z,88.75
2018-04-23T00:15:10.689Z,89.14
2018-04-23T00:16:10.679Z,89.04
2018-04-23T00:17:10.603Z,88.65
2018-04-23T00:18:10.551Z,88.65
2018-04-23T00:19:10.524Z,88.75
2018-04-23T00:20:10.490Z,88.46
2018-04-23T00:21:10.420Z,89.04
2018-04-23T00:22:10.375Z,89.04
2018-04-23T00:23:10.344Z,89.04
2018-04-23T00:24:10.312Z,88.75
2018-04-23T00:25:10.246Z,88.65
2018-04-23T00:26:10.205Z,88.65
2018-04-23T00:27:10.160Z,88.75
2018-04-23T00:28:10.122Z,88.95
2018-04-23T00:29:10.084Z,88.46
2018-04-23T00:30:10.039Z,88.65
2018-04-23T00:31:09.982Z,88.56
2018-04-23T00:32:09.944Z,88.65
2018-04-23T00:33:09.906Z,89.04
2018-04-23T00:34:09.842Z,88.46
2018-04-23T00:35:09.799Z,88.85
2018-04-23T00:36:09.777Z,88.75
2018-04-23T00:37:09.755Z,88.46
2018-04-23T00:38:09.687Z,88.75
2018-04-23T00:39:09.637Z,88.75
2018-04-23T00:40:09.593Z,89.14
2018-04-23T00:41:09.536Z,88.65
2018-04-23T00:42:09.499Z,88.95
2018-04-23T00:43:09.480Z,88.46
2018-04-23T00:44:09.404Z,88.71
2018-04-23T00:45:09.373Z,88.75
2018-04-23T00:46:09.338Z,88.65
2018-04-23T00:47:09.296Z,88.65
2018-04-23T00:48:09.240Z,89.23
2018-04-23T00:49:09.207Z,88.56
2018-04-23T00:50:09.178Z,88.85
2018-04-23T00:51:09.092Z,88.56
2018-04-23T00:52:09.057Z,88.85
2018-04-23T00:53:09.610Z,88.65
2018-04-23T00:54:08.969Z,88.37
2018-04-23T00:55:08.924Z,88.46
2018-04-23T00:56:08.883Z,88.37
2018-04-23T00:57:08.840Z,88.27
2018-04-23T00:58:08.794Z,88.17
2018-04-23T00:59:08.739Z,88.27
2018-04-23T01:00:08.700Z,88.08
2018-04-23T01:01:08.686Z,88.08
2018-04-23T01:02:08.592Z,88.56
2018-04-23T01:03:08.573Z,88.37
2018-04-23T01:04:08.517Z,88.61
2018-04-23T01:05:08.480Z,89.14
2018-04-23T01:06:08.441Z,89.00
2018-04-23T01:07:08.395Z,88.71
2018-04-23T01:08:08.338Z,88.65
2018-04-23T01:09:08.314Z,88.65
2018-04-23T01:10:08.262Z,88.85
2018-04-23T01:11:08.207Z,89.00
2018-04-23T01:12:08.193Z,89.09
2018-04-23T01:13:08.134Z,88.65
2018-04-23T01:14:08.116Z,88.56
2018-04-23T01:15:08.027Z,88.51
2018-04-23T01:16:07.982Z,88.46
2018-04-23T01:17:07.939Z,88.65
2018-04-23T01:18:07.896Z,88.75
2018-04-23T01:19:07.850Z,88.42
2018-04-23T01:20:07.806Z,88.42
2018-04-23T01:21:07.769Z,88.90
2018-04-23T01:22:07.725Z,88.90
2018-04-23T01:23:07.686Z,88.90
2018-04-23T01:24:07.659Z,89.67
2018-04-23T01:25:07.585Z,89.00
2018-04-23T01:26:07.548Z,89.86
2018-04-23T01:27:07.494Z,89.77
2018-04-23T01:28:07.459Z,89.29
2018-04-23T01:29:07.406Z,89.00
2018-04-23T01:30:07.348Z,89.39
2018-04-23T01:31:07.323Z,89.09
2018-04-23T01:32:07.291Z,89.19
2018-04-23T01:33:07.255Z,89.09
2018-04-23T01:34:07.196Z,89.77
2018-04-23T01:35:07.133Z,89.48
2018-04-23T01:36:07.095Z,89.96
2018-04-23T01:37:07.074Z,89.86
2018-04-23T01:38:07.018Z,89.86
2018-04-23T01:39:06.955Z,89.77
2018-04-23T01:40:06.900Z,89.77
2018-04-23T01:41:06.900Z,90.54
2018-04-23T01:42:06.832Z,90.44
2018-04-23T01:43:06.797Z,90.34
2018-04-23T01:44:06.955Z,90.44
2018-04-23T01:45:06.703Z,91.36
2018-04-23T01:46:06.657Z,90.50
2018-04-23T01:47:06.619Z,90.88
2018-04-23T01:48:06.562Z,90.92
2018-04-23T01:49:06.517Z,91.07
2018-04-23T01:50:06.474Z,91.21
2018-04-23T01:51:06.460Z,90.97
2018-04-23T01:52:06.397Z,91.02
2018-04-23T01:53:06.365Z,91.12
2018-04-23T01:54:06.308Z,90.44
2018-04-23T01:55:06.246Z,90.25
2018-04-23T01:56:06.204Z,90.25
2018-04-23T01:57:06.203Z,90.54
2018-04-23T01:58:06.120Z,90.44
2018-04-23T01:59:06.108Z,90.25
2018-04-23T02:00:06.054Z,90.73
2018-04-23T02:01:05.980Z,90.54
2018-04-23T02:02:05.965Z,90.69
2018-04-23T02:03:05.893Z,90.78
2018-04-23T02:04:05.851Z,90.59
2018-04-23T02:05:05.805Z,91.84
2018-04-23T02:06:05.766Z,91.94
2018-04-23T02:07:05.708Z,91.94
2018-04-23T02:08:05.654Z,91.55
2018-04-23T02:09:05.639Z,91.94
2018-04-23T02:10:05.589Z,92.03
2018-04-23T02:11:05.537Z,91.75
2018-04-23T02:12:05.487Z,91.84
2018-04-23T02:13:05.473Z,91.94
2018-04-23T02:14:05.421Z,92.03
2018-04-23T02:15:05.359Z,92.03
2018-04-23T02:16:05.364Z,91.55
2018-04-23T02:17:05.264Z,91.55
2018-04-23T02:18:05.225Z,91.94
2018-04-23T02:19:05.193Z,92.03
2018-04-23T02:20:05.136Z,92.13
2018-04-23T02:21:05.094Z,91.84
2018-04-23T02:22:05.045Z,91.94
2018-04-23T02:23:05.031Z,91.94
2018-04-23T02:24:04.948Z,91.65
2018-04-23T02:25:04.931Z,91.75
2018-04-23T02:26:04.866Z,92.03
2018-04-23T02:27:04.810Z,91.65
2018-04-23T02:28:04.808Z,91.84
2018-04-23T02:29:04.735Z,91.55
2018-04-23T02:30:04.674Z,91.65
2018-04-23T02:31:04.653Z,91.55
2018-04-23T02:32:04.593Z,91.46
2018-04-23T02:33:04.558Z,91.46
2018-04-23T02:34:04.521Z,91.17
2018-04-23T02:35:04.473Z,90.78
2018-04-23T02:36:04.421Z,90.69
2018-04-23T02:37:04.376Z,90.69
2018-04-23T02:38:04.329Z,91.27
2018-04-23T02:39:04.300Z,90.97
2018-04-23T02:40:04.226Z,92.03
2018-04-23T02:41:04.209Z,91.94
2018-04-23T02:42:04.150Z,91.75
2018-04-23T02:43:04.100Z,92.32
2018-04-23T02:44:04.095Z,91.75
2018-04-23T02:45:04.033Z,91.84
2018-04-23T02:46:03.980Z,91.94
2018-04-23T02:47:03.934Z,92.22
2018-04-23T02:48:03.874Z,91.65
2018-04-23T02:49:03.827Z,91.84
2018-04-23T02:50:03.807Z,92.13
2018-04-23T02:51:03.748Z,91.46
2018-04-23T02:52:03.733Z,91.75
2018-04-23T02:53:03.660Z,91.65
2018-04-23T02:54:03.619Z,91.27
2018-04-23T02:55:03.573Z,91.84
2018-04-23T02:56:03.530Z,91.75
2018-04-23T02:57:03.470Z,91.94
2018-04-23T02:58:03.449Z,91.75
2018-04-23T02:59:03.403Z,92.22
2018-04-23T03:00:03.383Z,91.94
2018-04-23T03:01:03.303Z,91.75
2018-04-23T03:02:03.272Z,91.17
2018-04-23T03:03:03.214Z,91.17
2018-04-23T03:04:03.172Z,91.36
2018-04-23T03:05:03.120Z,91.17
2018-04-23T03:06:03.108Z,91.46
2018-04-23T03:07:03.025Z,91.94
2018-04-23T03:08:03.005Z,91.27
2018-04-23T03:09:02.956Z,91.94
2018-04-23T03:10:02.891Z,91.84
2018-04-23T03:11:02.887Z,91.36
2018-04-23T03:12:02.825Z,91.46
2018-04-23T03:13:02.784Z,91.27
2018-04-23T03:14:02.727Z,91.36
2018-04-23T03:15:02.694Z,91.07
2018-04-23T03:16:02.653Z,91.94
2018-04-23T03:17:02.603Z,92.03
2018-04-23T03:18:02.544Z,92.03
2018-04-23T03:19:02.528Z,91.94
2018-04-23T03:20:02.484Z,91.65
2018-04-23T03:21:02.437Z,92.13
2018-04-23T03:22:02.380Z,92.03
2018-04-23T03:23:02.335Z,92.03
2018-04-23T03:24:02.291Z,92.13
2018-04-23T03:25:02.270Z,91.55
2018-04-23T03:26:02.208Z,91.65
2018-04-23T03:27:02.173Z,91.17
2018-04-23T03:28:02.112Z,91.84
2018-04-23T03:29:02.042Z,91.94
2018-04-23T03:30:02.042Z,91.65
2018-04-23T03:31:01.970Z,91.75
2018-04-23T03:32:01.918Z,92.03
2018-04-23T03:33:01.879Z,92.13
2018-04-23T03:34:01.819Z,91.94
2018-04-23T03:35:01.807Z,92.03
2018-04-23T03:36:01.750Z,91.65
2018-04-23T03:37:01.682Z,91.65
2018-04-23T03:38:01.653Z,91.94
2018-04-23T03:39:01.636Z,92.03
2018-04-23T03:40:01.557Z,91.46
2018-04-23T03:41:01.520Z,90.97
2018-04-23T03:42:01.460Z,91.36
2018-04-23T03:43:01.460Z,91.36
2018-04-23T03:44:01.385Z,91.17
2018-04-23T03:45:01.353Z,91.46
2018-04-23T03:46:01.302Z,91.17
2018-04-23T03:47:01.245Z,91.46
2018-04-23T03:48:01.207Z,91.75
2018-04-23T03:49:01.176Z,91.84
2018-04-23T03:50:01.114Z,91.84
2018-04-23T03:51:01.087Z,91.75
2018-04-23T03:52:01.028Z,91.84
2018-04-23T03:53:00.968Z,91.17
2018-04-23T03:54:00.958Z,91.27
2018-04-23T03:55:00.904Z,91.17
2018-04-23T03:56:00.846Z,91.17
2018-04-23T03:57:00.821Z,91.17
2018-04-23T03:58:00.787Z,91.07
2018-04-23T03:59:00.727Z,91.27
2018-04-23T04:00:00.670Z,91.17
2018-04-23T04:01:00.653Z,91.36
2018-04-23T04:02:00.580Z,91.99
2018-04-23T04:03:00.547Z,91.60
2018-04-23T04:04:00.514Z,91.99
2018-04-23T04:05:00.474Z,91.31
2018-04-23T04:06:00.414Z,91.70
2018-04-23T04:07:00.359Z,91.80
2018-04-23T04:08:00.328Z,91.80
2018-04-23T04:09:00.269Z,91.99
2018-04-23T04:10:00.247Z,91.70
2018-04-23T04:11:00.180Z,90.93
2018-04-23T04:12:00.146Z,91.89
2018-04-23T04:13:00.075Z,92.08
2018-04-23T04:14:00.057Z,92.18
2018-04-23T04:14:59.993Z,92.08
2018-04-23T04:15:59.969Z,91.89
2018-04-23T04:16:59.917Z,91.41
2018-04-23T04:17:59.855Z,91.99
2018-04-23T04:18:59.833Z,91.60
2018-04-23T04:19:59.802Z,92.08
2018-04-23T04:20:59.745Z,91.70
2018-04-23T04:21:59.701Z,91.99
2018-04-23T04:22:59.643Z,91.75
2018-04-23T04:23:59.611Z,91.75
2018-04-23T04:24:59.552Z,91.60
2018-04-23T04:25:59.521Z,91.60
2018-04-23T04:26:59.477Z,91.80
2018-04-23T04:27:59.431Z,91.60
2018-04-23T04:28:59.373Z,91.80
2018-04-23T04:29:59.335Z,91.89
2018-04-23T04:30:59.351Z,91.99
2018-04-23T04:31:59.228Z,91.60
2018-04-23T04:32:59.207Z,91.70
2018-04-23T04:33:59.161Z,91.80
2018-04-23T04:34:59.102Z,91.51
2018-04-23T04:35:59.060Z,91.70
2018-04-23T04:36:59.022Z,91.80
2018-04-23T04:37:58.974Z,91.70
2018-04-23T04:38:58.925Z,91.60
2018-04-23T04:39:58.912Z,91.80
2018-04-23T04:40:58.855Z,92.18
2018-04-23T04:41:58.803Z,92.38
2018-04-23T04:42:58.747Z,91.89
2018-04-23T04:43:58.748Z,92.18
2018-04-23T04:44:58.657Z,91.60
2018-04-23T04:45:58.608Z,91.60
2018-04-23T04:46:58.572Z,92.08
2018-04-23T04:47:58.522Z,91.89
2018-04-23T04:48:58.496Z,91.80
2018-04-23T04:49:58.441Z,92.08
2018-04-23T04:50:58.401Z,92.18
2018-04-23T04:51:58.358Z,92.38
2018-04-23T04:52:58.291Z,92.38
2018-04-23T04:53:58.253Z,92.47
2018-04-23T04:54:58.208Z,92.47
2018-04-23T04:55:58.170Z,92.38
2018-04-23T04:56:58.119Z,92.47
2018-04-23T04:57:58.078Z,92.47
2018-04-23T04:58:58.075Z,93.10
2018-04-23T04:59:57.997Z,92.61
2018-04-23T05:00:57.951Z,92.76
2018-04-23T05:01:57.902Z,92.91
2018-04-23T05:02:57.843Z,92.28
2018-04-23T05:03:57.790Z,92.47
2018-04-23T05:04:57.760Z,91.99
2018-04-23T05:05:57.736Z,92.43
2018-04-23T05:06:57.683Z,92.95
2018-04-23T05:07:57.630Z,92.57
2018-04-23T05:08:57.595Z,92.43
2018-04-23T05:09:57.545Z,92.81
2018-04-23T05:10:57.484Z,92.52
2018-04-23T05:11:57.453Z,92.61
2018-04-23T05:12:57.408Z,92.76
2018-04-23T05:13:57.886Z,92.52
2018-04-23T05:14:57.348Z,92.85
2018-04-23T05:15:57.266Z,93.15
2018-04-23T05:16:57.226Z,92.81
2018-04-23T05:17:57.157Z,92.95
2018-04-23T05:18:57.142Z,92.95
2018-04-23T05:19:57.078Z,93.33
2018-04-23T05:20:57.029Z,93.19
2018-04-23T05:21:56.996Z,92.95
2018-04-23T05:22:56.964Z,93.10
2018-04-23T05:23:56.908Z,93.43
2018-04-23T05:24:56.849Z,93.43
2018-04-23T05:25:56.814Z,92.76
2018-04-23T05:26:56.784Z,93.24
2018-04-23T05:27:56.709Z,93.10
2018-04-23T05:28:56.708Z,93.38
2018-04-23T05:29:56.679Z,92.85
2018-04-23T05:30:56.595Z,93.15
2018-04-23T05:31:56.531Z,92.95
2018-04-23T05:32:56.489Z,93.15
2018-04-23T05:33:56.471Z,93.05
2018-04-23T05:34:56.435Z,93.05
2018-04-23T05:35:56.380Z,92.85
2018-04-23T05:36:56.315Z,92.95
2018-04-23T05:37:56.289Z,92.57
2018-04-23T05:38:56.239Z,92.57
2018-04-23T05:39:56.172Z,92.85
2018-04-23T05:40:56.156Z,92.95
2018-04-23T05:41:56.112Z,93.24
2018-04-23T05:42:56.062Z,92.95
2018-04-23T05:43:56.028Z,93.24
2018-04-23T05:44:55.982Z,93.15
2018-04-23T05:45:55.936Z,93.24
2018-04-23T05:46:55.867Z,93.15
2018-04-23T05:47:55.828Z,93.15
2018-04-23T05:48:55.787Z,93.33
2018-04-23T05:49:55.762Z,92.76
2018-04-23T05:50:55.682Z,92.85
2018-04-23T05:51:55.664Z,92.76
2018-04-23T05:52:55.606Z,93.05
2018-04-23T05:53:55.580Z,92.95
2018-04-23T05:54:55.551Z,92.76
2018-04-23T05:55:55.467Z,92.66
2018-04-23T05:56:55.433Z,92.47
2018-04-23T05:57:55.367Z,92.85
2018-04-23T05:58:55.368Z,93.33
2018-04-23T05:59:55.292Z,93.24
2018-04-23T06:00:55.252Z,93.53
2018-04-23T06:01:55.199Z,93.24
2018-04-23T06:02:55.171Z,93.33
2018-04-23T06:03:55.119Z,93.15
2018-04-23T06:04:55.066Z,93.53
2018-04-23T06:05:55.035Z,94.01
2018-04-23T06:06:55.502Z,93.87
2018-04-23T06:07:54.953Z,93.58
2018-04-23T06:08:54.938Z,93.58
2018-04-23T06:09:54.840Z,93.62
2018-04-23T06:10:54.794Z,94.01
2018-04-23T06:11:54.753Z,93.91
2018-04-23T06:12:54.707Z,94.01
2018-04-23T06:13:54.649Z,93.58
2018-04-23T06:14:54.610Z,93.72
2018-04-23T06:15:54.580Z,93.62
2018-04-23T06:16:54.518Z,93.24
2018-04-23T06:17:54.483Z,93.24
2018-04-23T06:18:54.451Z,93.15
2018-04-23T06:19:54.392Z,93.53
2018-04-23T06:20:54.346Z,93.53
2018-04-23T06:21:54.296Z,93.24
2018-04-23T06:22:54.258Z,93.19
2018-04-23T06:23:54.218Z,93.33
2018-04-23T06:24:54.156Z,93.05
2018-04-23T06:25:54.166Z,93.15
2018-04-23T06:26:54.103Z,93.58
2018-04-23T06:27:54.032Z,93.87
2018-04-23T06:28:53.995Z,93.38
2018-04-23T06:29:53.926Z,93.48
2018-04-23T06:30:53.885Z,93.87
2018-04-23T06:31:53.880Z,93.87
2018-04-23T06:32:53.809Z,93.87
2018-04-23T06:33:55.202Z,93.87
2018-04-23T06:34:53.719Z,93.77
2018-04-23T06:35:53.676Z,93.38
2018-04-23T06:36:53.629Z,93.68
2018-04-23T06:37:53.571Z,93.58
2018-04-23T06:38:53.544Z,94.06
2018-04-23T06:39:53.496Z,93.91
2018-04-23T06:40:53.449Z,93.62
2018-04-23T06:41:53.398Z,93.48
2018-04-23T06:42:53.373Z,93.43
2018-04-23T06:43:53.347Z,93.58
2018-04-23T06:44:53.257Z,93.38
2018-04-23T06:45:53.208Z,93.05
2018-04-23T06:46:53.207Z,93.15
2018-04-23T06:47:53.122Z,93.48
2018-04-23T06:48:53.088Z,93.15
2018-04-23T06:49:53.043Z,93.10
2018-04-23T06:50:53.007Z,92.95
2018-04-23T06:51:52.969Z,93.24
2018-04-23T06:52:52.918Z,92.85
2018-04-23T06:53:52.851Z,93.10
2018-04-23T06:54:52.835Z,92.85
2018-04-23T06:55:52.762Z,93.58
2018-04-23T06:56:52.719Z,93.58
2018-04-23T06:57:52.715Z,93.48
2018-04-23T06:58:52.628Z,94.06
2018-04-23T06:59:52.596Z,93.77
2018-04-23T07:00:52.555Z,94.15
2018-04-23T07:01:52.532Z,93.77
2018-04-23T07:02:52.466Z,93.96
2018-04-23T07:03:52.424Z,93.68
2018-04-23T07:04:52.374Z,93.77
2018-04-23T07:05:52.352Z,93.87
2018-04-23T07:06:52.271Z,94.06
2018-04-23T07:07:52.246Z,93.29
2018-04-23T07:08:52.221Z,93.96
2018-04-23T07:09:52.139Z,93.58
2018-04-23T07:10:52.117Z,93.48
2018-04-23T07:11:52.076Z,93.68
2018-04-23T07:12:52.022Z,93.38
2018-04-23T07:13:51.969Z,93.87
2018-04-23T07:14:51.926Z,93.87
2018-04-23T07:15:51.903Z,94.06
2018-04-23T07:16:51.848Z,93.87
2018-04-23T07:17:51.825Z,93.58
2018-04-23T07:18:51.737Z,93.96
2018-04-23T07:19:51.715Z,93.96
2018-04-23T07:20:51.683Z,93.68
2018-04-23T07:21:51.619Z,93.77
2018-04-23T07:22:51.562Z,94.06
2018-04-23T07:23:51.531Z,94.83
2018-04-23T07:24:51.485Z,94.35
2018-04-23T07:25:51.423Z,94.64
2018-04-23T07:26:51.393Z,94.35
2018-04-23T07:27:51.357Z,94.92
2018-04-23T07:28:51.310Z,94.73
2018-04-23T07:29:51.234Z,94.73
2018-04-23T07:30:51.190Z,94.54
2018-04-23T07:31:51.154Z,94.45
2018-04-23T07:32:51.105Z,94.92
2018-04-23T07:33:51.070Z,94.45
2018-04-23T07:34:51.049Z,95.31
2018-04-23T07:35:51.007Z,95.02
2018-04-23T07:36:50.930Z,95.36
2018-04-23T07:37:50.891Z,95.75
2018-04-23T07:38:50.863Z,95.17
2018-04-23T07:39:50.812Z,96.17
2018-04-23T07:40:50.792Z,95.94
2018-04-23T07:41:50.704Z,96.13
2018-04-23T07:42:50.673Z,96.32
2018-04-23T07:43:50.639Z,95.94
2018-04-23T07:44:50.589Z,95.84
2018-04-23T07:45:50.557Z,96.42
2018-04-23T07:46:50.472Z,96.13
2018-04-23T07:47:50.478Z,96.32
2018-04-23T07:48:50.397Z,96.42
2018-04-23T07:49:50.350Z,96.61
2018-04-23T07:50:50.337Z,96.99
2018-04-23T07:51:50.248Z,96.80
2018-04-23T07:52:50.241Z,96.70
2018-04-23T07:53:50.196Z,96.51
2018-04-23T07:54:50.157Z,96.22
2018-04-23T07:55:50.094Z,95.94
2018-04-23T07:56:50.071Z,96.08
2018-04-23T07:57:49.983Z,95.89
2018-04-23T07:58:49.944Z,96.03
2018-04-23T07:59:49.911Z,95.84
2018-04-23T08:00:49.873Z,96.22
2018-04-23T08:01:49.817Z,95.98
2018-04-23T08:02:49.786Z,96.42
2018-04-23T08:03:49.731Z,96.03
2018-04-23T08:04:49.686Z,96.17
2018-04-23T08:05:49.661Z,95.89
2018-04-23T08:06:49.612Z,95.70
2018-04-23T08:07:49.535Z,95.70
2018-04-23T08:08:49.494Z,95.60
2018-04-23T08:09:49.443Z,95.60
2018-04-23T08:10:49.401Z,95.40
2018-04-23T08:11:49.366Z,95.60
2018-04-23T08:12:49.338Z,95.65
2018-04-23T08:13:49.261Z,95.40
2018-04-23T08:14:49.248Z,95.55
2018-04-23T08:15:49.182Z,95.75
2018-04-23T08:16:49.132Z,95.45
2018-04-23T08:17:49.074Z,95.26
2018-04-23T08:18:49.028Z,95.55
2018-04-23T08:19:49.036Z,96.03
2018-04-23T08:20:48.952Z,96.13
2018-04-23T08:21:48.913Z,96.13
2018-04-23T08:22:48.874Z,96.32
2018-04-23T08:23:48.846Z,96.22
2018-04-23T08:24:48.798Z,96.61
2018-04-23T08:25:48.719Z,96.61
2018-04-23T08:26:48.704Z,96.22
2018-04-23T08:27:48.636Z,96.22
2018-04-23T08:28:48.588Z,96.13
2018-04-23T08:29:48.545Z,96.03
2018-04-23T08:30:48.513Z,95.84
2018-04-23T08:31:48.494Z,96.42
2018-04-23T08:32:48.438Z,95.94
2018-04-23T08:33:48.379Z,96.32
2018-04-23T08:34:48.330Z,96.32
2018-04-23T08:35:48.301Z,95.55
2018-04-23T08:36:48.243Z,95.65
2018-04-23T08:37:48.171Z,95.26
2018-04-23T08:38:48.152Z,95.45
2018-04-23T08:39:48.107Z,95.55
2018-04-23T08:40:48.061Z,95.55
2018-04-23T08:41:48.013Z,95.94
2018-04-23T08:42:47.974Z,95.94
2018-04-23T08:43:47.938Z,96.42
2018-04-23T08:44:47.897Z,96.42
2018-04-23T08:45:47.856Z,95.94
2018-04-23T08:46:47.766Z,95.84
2018-04-23T08:47:47.737Z,95.65
2018-04-23T08:48:47.681Z,96.03
2018-04-23T08:49:47.631Z,96.13
2018-04-23T08:50:47.605Z,95.94
2018-04-23T08:51:47.580Z,96.03
2018-04-23T08:52:47.503Z,95.45
2018-04-23T08:53:47.486Z,95.17
2018-04-23T08:54:47.432Z,94.68
2018-04-23T08:55:47.370Z,94.68
2018-04-23T08:56:47.322Z,95.36
2018-04-23T08:57:47.280Z,95.45
2018-04-23T08:58:47.240Z,94.68
2018-04-23T08:59:47.198Z,94.88
2018-04-23T09:00:47.131Z,94.88
2018-04-23T09:01:47.091Z,95.45
2018-04-23T09:02:47.086Z,95.45
2018-04-23T09:03:47.005Z,95.84
2018-04-23T09:04:46.985Z,95.45
2018-04-23T09:05:46.940Z,95.36
2018-04-23T09:06:46.865Z,95.75
2018-04-23T09:07:46.846Z,96.03
2018-04-23T09:08:46.808Z,95.55
2018-04-23T09:09:46.752Z,95.36
2018-04-23T09:10:46.705Z,95.45
2018-04-23T09:11:46.692Z,95.55
2018-04-23T09:12:46.618Z,95.75
2018-04-23T09:13:46.566Z,95.26
2018-04-23T09:14:46.544Z,95.07
2018-04-23T09:15:46.466Z,95.26
2018-04-23T09:16:46.419Z,95.36
2018-04-23T09:17:46.443Z,95.75
2018-04-23T09:18:46.352Z,95.36
2018-04-23T09:19:46.284Z,95.55
2018-04-23T09:20:46.254Z,95.36
2018-04-23T09:21:46.213Z,95.26
2018-04-23T09:22:46.158Z,95.55
2018-04-23T09:23:46.384Z,95.17
2018-04-23T09:24:46.131Z,94.88
2018-04-23T09:25:46.038Z,95.26
2018-04-23T09:26:45.975Z,95.17
2018-04-23T09:27:45.948Z,95.45
2018-04-23T09:28:45.868Z,96.03
2018-04-23T09:29:45.841Z,95.94
2018-04-23T09:30:45.782Z,96.32
2018-04-23T09:31:45.786Z,96.32
2018-04-23T09:32:45.735Z,96.51
2018-04-23T09:33:45.692Z,96.90
2018-04-23T09:34:45.627Z,96.99
2018-04-23T09:35:45.563Z,96.70
2018-04-23T09:36:46.058Z,97.09
2018-04-23T09:37:45.478Z,96.99
2018-04-23T09:38:45.441Z,97.19
2018-04-23T09:39:45.389Z,97.19
2018-04-23T09:40:45.330Z,96.70
2018-04-23T09:41:49.368Z,96.90
2018-04-23T09:42:45.255Z,97.67
2018-04-23T09:43:45.210Z,97.09
2018-04-23T09:44:45.166Z,97.47
2018-04-23T09:45:45.120Z,97.67
2018-04-23T09:46:45.101Z,97.86
2018-04-23T09:47:45.024Z,97.38
2018-04-23T09:48:45.489Z,97.57
2018-04-23T09:49:44.949Z,97.67
2018-04-23T09:50:44.911Z,97.38
2018-04-23T09:51:44.862Z,97.57
2018-04-23T09:52:44.830Z,97.86
2018-04-23T09:53:44.768Z,97.67
2018-04-23T09:54:44.713Z,97.28
2018-04-23T09:55:44.680Z,97.57
2018-04-23T09:56:44.649Z,97.19
2018-04-23T09:57:44.575Z,96.90
2018-04-23T09:58:44.547Z,96.80
2018-04-23T09:59:44.496Z,96.80
2018-04-23T10:00:44.444Z,96.90
2018-04-23T10:01:44.412Z,96.90
2018-04-23T10:02:44.340Z,96.47
2018-04-23T10:03:44.335Z,96.27
2018-04-23T10:04:44.280Z,96.17
2018-04-23T10:05:44.205Z,95.89
2018-04-23T10:06:44.167Z,95.60
2018-04-23T10:07:44.137Z,95.31
2018-04-23T10:08:44.085Z,94.45
2018-04-23T10:09:44.036Z,94.45
2018-04-23T10:10:44.023Z,94.10
2018-04-23T10:11:43.949Z,93.87
2018-04-23T10:12:43.939Z,93.96
2018-04-23T10:13:43.850Z,93.48
2018-04-23T10:14:43.839Z,93.87
2018-04-23T10:15:43.807Z,94.06
2018-04-23T10:16:43.734Z,93.87
2018-04-23T10:17:43.699Z,94.64
2018-04-23T10:18:43.636Z,94.30
2018-04-23T10:19:43.602Z,94.54
2018-04-23T10:20:43.547Z,94.35
2018-04-23T10:21:43.522Z,94.45
2018-04-23T10:22:43.507Z,93.91
2018-04-23T10:23:43.439Z,93.91
2018-04-23T10:24:43.389Z,93.68
2018-04-23T10:25:43.888Z,94.10
2018-04-23T10:26:43.289Z,94.01
2018-04-23T10:27:43.257Z,93.91
2018-04-23T10:28:43.187Z,93.62
2018-04-23T10:29:43.194Z,93.91
2018-04-23T10:30:43.138Z,93.62
2018-04-23T10:31:43.327Z,93.33
2018-04-23T10:32:43.024Z,92.57
2018-04-23T10:33:43.009Z,92.85
2018-04-23T10:34:42.944Z,92.95
2018-04-23T10:35:42.900Z,92.95
2018-04-23T10:36:42.874Z,92.28
2018-04-23T10:37:42.797Z,92.18
2018-04-23T10:38:42.775Z,91.51
2018-04-23T10:39:42.746Z,91.75
2018-04-23T10:40:42.686Z,91.65
2018-04-23T10:41:42.616Z,91.55
2018-04-23T10:42:42.586Z,91.27
2018-04-23T10:43:42.542Z,91.17
2018-04-23T10:44:42.506Z,91.17
2018-04-23T10:45:42.469Z,90.25
2018-04-23T10:46:42.401Z,89.04
2018-04-23T10:47:42.380Z,87.98
2018-04-23T10:48:42.323Z,86.44
2018-04-23T10:49:42.277Z,85.03
2018-04-23T10:50:42.250Z,84.69
2018-04-23T10:51:42.211Z,83.83
2018-04-23T10:52:42.178Z,83.67
2018-04-23T10:53:42.140Z,82.32
2018-04-23T10:54:42.108Z,82.61
2018-04-23T10:55:42.064Z,81.65
2018-04-23T10:56:42.031Z,81.35
2018-04-23T10:57:42.012Z,80.20
2018-04-23T10:58:41.938Z,80.72
2018-04-23T10:59:41.890Z,79.95
2018-04-23T11:00:41.873Z,79.27
2018-04-23T11:01:41.828Z,79.41
2018-04-23T11:02:41.790Z,79.22
2018-04-23T11:03:41.751Z,78.21
2018-04-23T11:04:41.713Z,79.12
2018-04-23T11:05:41.667Z,79.17
2018-04-23T11:06:41.637Z,79.37
2018-04-23T11:07:41.608Z,79.95
2018-04-23T11:08:41.575Z,80.62
2018-04-23T11:09:41.564Z,80.05
2018-04-23T11:10:41.489Z,80.24
2018-04-23T11:11:41.437Z,79.85
2018-04-23T11:12:41.422Z,80.58
2018-04-23T11:13:41.379Z,80.62
2018-04-23T11:14:41.313Z,80.49
2018-04-23T11:15:41.272Z,80.68
2018-04-23T11:16:41.225Z,80.78
2018-04-23T11:17:41.183Z,80.39
2018-04-23T11:18:41.149Z,81.35
2018-04-23T11:19:41.108Z,81.55
2018-04-23T11:20:41.058Z,81.26
2018-04-23T11:21:41.024Z,81.07
2018-04-23T11:22:40.997Z,80.87
2018-04-23T11:23:40.968Z,80.58
2018-04-23T11:24:40.912Z,80.58
2018-04-23T11:25:40.858Z,81.16
2018-04-23T11:26:40.843Z,81.84
2018-04-23T11:27:40.764Z,81.55
2018-04-23T11:28:40.744Z,82.03
2018-04-23T11:29:40.703Z,82.13
2018-04-23T11:30:40.685Z,81.07
2018-04-23T11:31:40.606Z,81.45
2018-04-23T11:32:40.572Z,81.35
2018-04-23T11:33:40.529Z,80.78
2018-04-23T11:34:40.477Z,81.07
2018-04-23T11:35:40.431Z,80.68
2018-04-23T11:36:40.411Z,81.16
2018-04-23T11:37:40.360Z,80.87
2018-04-23T11:38:40.354Z,80.78
2018-04-23T11:39:40.261Z,80.68
2018-04-23T11:40:40.224Z,80.49
2018-04-23T11:41:40.169Z,80.78
2018-04-23T11:42:40.135Z,80.30
2018-04-23T11:43:40.114Z,79.81
2018-04-23T11:44:40.091Z,80.20
2018-04-23T11:45:40.014Z,80.20
2018-04-23T11:46:39.982Z,79.81
2018-04-23T11:47:39.932Z,80.33
2018-04-23T11:48:39.886Z,80.00
2018-04-23T11:49:39.829Z,80.24
2018-04-23T11:50:39.796Z,80.14
2018-04-23T11:51:39.785Z,81.26
2018-04-23T11:52:39.729Z,80.82
2018-04-23T11:53:39.686Z,80.78
2018-04-23T11:54:39.667Z,80.43
2018-04-23T11:55:39.597Z,80.62
2018-04-23T11:56:39.557Z,81.01
2018-04-23T11:57:39.516Z,80.33
2018-04-23T11:58:39.461Z,81.20
2018-04-23T11:59:39.403Z,81.01
2018-04-23T12:00:39.383Z,79.81
2018-04-23T12:01:39.334Z,80.78
2018-04-23T12:02:39.273Z,80.20
2018-04-23T12:03:39.259Z,80.78
2018-04-23T12:04:39.223Z,80.33
2018-04-23T12:05:39.164Z,79.37
2018-04-23T12:06:39.134Z,78.79
2018-04-23T12:07:39.062Z,78.89
2018-04-23T12:08:39.063Z,78.21
2018-04-23T12:09:38.994Z,78.41
2018-04-23T12:10:38.966Z,78.11
2018-04-23T12:11:38.951Z,78.41
2018-04-23T12:12:38.855Z,78.50
2018-04-23T12:13:38.824Z,78.89
2018-04-23T12:14:38.774Z,79.47
2018-04-23T12:15:38.725Z,79.02
2018-04-23T12:16:38.709Z,77.38
2018-04-23T12:17:38.654Z,77.00
2018-04-23T12:18:38.640Z,76.12
2018-04-23T12:19:38.592Z,76.03
2018-04-23T12:20:38.518Z,76.42
2018-04-23T12:21:38.515Z,76.51
2018-04-23T12:22:38.436Z,76.61
2018-04-23T12:23:38.413Z,77.00
2018-04-23T12:24:38.345Z,77.86
2018-04-23T12:25:38.317Z,77.28
2018-04-23T12:26:38.278Z,77.71
2018-04-23T12:27:38.259Z,76.74
2018-04-23T12:28:38.185Z,76.74
2018-04-23T12:29:38.159Z,76.12
2018-04-23T12:30:38.106Z,76.42
2018-04-23T12:31:38.084Z,76.61
2018-04-23T12:32:38.042Z,77.00
2018-04-23T12:33:37.967Z,77.09
2018-04-23T12:34:37.925Z,77.67
2018-04-23T12:35:37.922Z,77.96
2018-04-23T12:36:37.865Z,77.48
2018-04-23T12:37:37.830Z,75.54
2018-04-23T12:38:37.760Z,75.26
2018-04-23T12:39:37.708Z,74.87
2018-04-23T12:40:37.691Z,75.16
2018-04-23T12:41:37.669Z,74.96
2018-04-23T12:42:37.599Z,74.87
2018-04-23T12:43:37.550Z,75.26
2018-04-23T12:44:37.500Z,75.74
2018-04-23T12:45:37.572Z,75.54
2018-04-23T12:46:37.442Z,75.45
2018-04-23T12:47:37.380Z,75.93
2018-04-23T12:48:37.351Z,76.06
2018-04-23T12:49:37.301Z,75.00
2018-04-23T12:50:37.258Z,73.84
2018-04-23T12:51:37.217Z,73.16